Terminal Aerodrome Forecast
Issued by NWS Wakefield, VA

Home | Current Version | Previous Version | Text Only | Print | Product List | Glossary On
Versions: 1 2 3 4 5 6 7 8 9 10 11 12
000
FTUS41 KAKQ 231100
TAFORF
TAF
KORF 231135Z 2312/2412 21006KT P6SM FEW040 SCT250
     FM231400 19009KT P6SM SCT030 BKN120
     FM232200 16016G24KT 3SM -RA BKN007=

USA.gov is the U.S. government's official web portal to all federal, state and local government web resources and services.